sensor_id;sensor_type;location;lat;lon;timestamp;temperature;humidity
67163;DHT22;54092;53.088;8.850;2024-01-25T00:01:21;8.10;99.90
67163;DHT22;54092;53.088;8.850;2024-01-25T00:03:47;8.10;99.90
67163;DHT22;54092;53.088;8.850;2024-01-25T00:06:13;8.10;99.90
67163;DHT22;54092;53.088;8.850;2024-01-25T00:08:38;8.10;99.90
67163;DHT22;54092;53.088;8.850;2024-01-25T00:11:04;8.10;99.90
67163;DHT22;54092;53.088;8.850;2024-01-25T00:13:30;8.10;99.90
67163;DHT22;54092;53.088;8.850;2024-01-25T00:15:56;8.10;99.90
67163;DHT22;54092;53.088;8.850;2024-01-25T00:18:22;8.10;99.90
67163;DHT22;54092;53.088;8.850;2024-01-25T00:20:47;8.10;99.90
67163;DHT22;54092;53.088;8.850;2024-01-25T00:23:13;8.10;99.90
67163;DHT22;54092;53.088;8.850;2024-01-25T00:25:38;8.10;99.90
67163;DHT22;54092;53.088;8.850;2024-01-25T00:28:04;8.10;99.90
67163;DHT22;54092;53.088;8.850;2024-01-25T00:30:30;8.10;99.90
67163;DHT22;54092;53.088;8.850;2024-01-25T00:32:58;8.10;99.90
67163;DHT22;54092;53.088;8.850;2024-01-25T00:35:24;8.10;99.90
67163;DHT22;54092;53.088;8.850;2024-01-25T00:37:51;8.10;99.90
67163;DHT22;54092;53.088;8.850;2024-01-25T00:40:16;8.10;99.90
67163;DHT22;54092;53.088;8.850;2024-01-25T00:42:45;8.00;99.90
67163;DHT22;54092;53.088;8.850;2024-01-25T00:45:15;8.10;99.90
67163;DHT22;54092;53.088;8.850;2024-01-25T00:47:41;8.00;99.90
67163;DHT22;54092;53.088;8.850;2024-01-25T00:50:06;8.00;99.90
67163;DHT22;54092;53.088;8.850;2024-01-25T00:52:32;7.90;99.90
67163;DHT22;54092;53.088;8.850;2024-01-25T00:54:58;7.90;99.90
67163;DHT22;54092;53.088;8.850;2024-01-25T00:57:24;7.80;99.90
67163;DHT22;54092;53.088;8.850;2024-01-25T00:59:49;7.70;99.90
67163;DHT22;54092;53.088;8.850;2024-01-25T01:02:15;7.70;99.90
67163;DHT22;54092;53.088;8.850;2024-01-25T01:04:41;7.60;99.90
67163;DHT22;54092;53.088;8.850;2024-01-25T01:07:07;7.60;99.90
67163;DHT22;54092;53.088;8.850;2024-01-25T01:09:33;7.50;99.90
67163;DHT22;54092;53.088;8.850;2024-01-25T01:11:58;7.50;99.90
67163;DHT22;54092;53.088;8.850;2024-01-25T01:14:24;7.50;99.90
67163;DHT22;54092;53.088;8.850;2024-01-25T01:16:50;7.50;99.90
67163;DHT22;54092;53.088;8.850;2024-01-25T01:19:16;7.50;99.90
67163;DHT22;54092;53.088;8.850;2024-01-25T01:21:42;7.50;99.90
67163;DHT22;54092;53.088;8.850;2024-01-25T01:24:10;7.50;99.90
67163;DHT22;54092;53.088;8.850;2024-01-25T01:26:36;7.50;99.90
67163;DHT22;54092;53.088;8.850;2024-01-25T01:29:02;7.50;99.90
67163;DHT22;54092;53.088;8.850;2024-01-25T01:31:28;7.50;99.90
67163;DHT22;54092;53.088;8.850;2024-01-25T01:33:53;7.50;99.90
67163;DHT22;54092;53.088;8.850;2024-01-25T01:36:19;7.50;99.90
67163;DHT22;54092;53.088;8.850;2024-01-25T01:38:45;7.40;99.90
67163;DHT22;54092;53.088;8.850;2024-01-25T01:41:10;7.40;99.90
67163;DHT22;54092;53.088;8.850;2024-01-25T01:43:39;7.40;99.90
67163;DHT22;54092;53.088;8.850;2024-01-25T01:46:10;7.40;99.90
67163;DHT22;54092;53.088;8.850;2024-01-25T01:48:38;7.40;99.90
67163;DHT22;54092;53.088;8.850;2024-01-25T01:51:03;7.30;99.90
67163;DHT22;54092;53.088;8.850;2024-01-25T01:53:29;7.30;99.90
67163;DHT22;54092;53.088;8.850;2024-01-25T01:55:54;7.30;99.90
67163;DHT22;54092;53.088;8.850;2024-01-25T01:58:20;7.30;99.90
67163;DHT22;54092;53.088;8.850;2024-01-25T02:00:49;7.30;99.90
67163;DHT22;54092;53.088;8.850;2024-01-25T02:03:15;7.20;99.90
67163;DHT22;54092;53.088;8.850;2024-01-25T02:05:41;7.20;99.90
67163;DHT22;54092;53.088;8.850;2024-01-25T02:08:07;7.30;99.90
67163;DHT22;54092;53.088;8.850;2024-01-25T02:10:34;7.20;99.90
67163;DHT22;54092;53.088;8.850;2024-01-25T02:12:59;7.20;99.90
67163;DHT22;54092;53.088;8.850;2024-01-25T02:15:25;7.30;99.90
67163;DHT22;54092;53.088;8.850;2024-01-25T02:17:50;7.30;99.90
67163;DHT22;54092;53.088;8.850;2024-01-25T02:20:18;7.30;99.90
67163;DHT22;54092;53.088;8.850;2024-01-25T02:22:44;7.30;99.90
67163;DHT22;54092;53.088;8.850;2024-01-25T02:25:09;7.30;99.90
67163;DHT22;54092;53.088;8.850;2024-01-25T02:27:34;7.30;99.90
67163;DHT22;54092;53.088;8.850;2024-01-25T02:30:05;7.20;99.90
67163;DHT22;54092;53.088;8.850;2024-01-25T02:32:31;7.30;99.90
67163;DHT22;54092;53.088;8.850;2024-01-25T02:34:56;7.20;99.90
67163;DHT22;54092;53.088;8.850;2024-01-25T02:37:22;7.10;99.90
67163;DHT22;54092;53.088;8.850;2024-01-25T02:39:47;7.10;99.90
67163;DHT22;54092;53.088;8.850;2024-01-25T02:42:13;7.10;99.90
67163;DHT22;54092;53.088;8.850;2024-01-25T02:44:39;7.10;99.90
67163;DHT22;54092;53.088;8.850;2024-01-25T02:47:05;7.10;99.90
67163;DHT22;54092;53.088;8.850;2024-01-25T02:49:30;7.10;99.90
67163;DHT22;54092;53.088;8.850;2024-01-25T02:51:56;7.10;99.90
67163;DHT22;54092;53.088;8.850;2024-01-25T02:54:21;7.00;99.90
67163;DHT22;54092;53.088;8.850;2024-01-25T02:56:46;7.00;99.90
67163;DHT22;54092;53.088;8.850;2024-01-25T02:59:12;7.00;99.90
67163;DHT22;54092;53.088;8.850;2024-01-25T03:01:41;7.00;99.90
67163;DHT22;54092;53.088;8.850;2024-01-25T03:04:07;7.00;99.90
67163;DHT22;54092;53.088;8.850;2024-01-25T03:06:33;7.00;99.90
67163;DHT22;54092;53.088;8.850;2024-01-25T03:08:58;7.00;99.90
67163;DHT22;54092;53.088;8.850;2024-01-25T03:11:24;6.90;99.90
67163;DHT22;54092;53.088;8.850;2024-01-25T03:13:49;6.90;99.90
67163;DHT22;54092;53.088;8.850;2024-01-25T03:16:14;6.90;99.90
67163;DHT22;54092;53.088;8.850;2024-01-25T03:18:40;6.90;99.90
67163;DHT22;54092;53.088;8.850;2024-01-25T03:21:05;6.90;99.90
67163;DHT22;54092;53.088;8.850;2024-01-25T03:23:31;6.90;99.90
67163;DHT22;54092;53.088;8.850;2024-01-25T03:25:56;6.90;99.90
67163;DHT22;54092;53.088;8.850;2024-01-25T03:28:22;6.90;99.90
67163;DHT22;54092;53.088;8.850;2024-01-25T03:30:47;6.90;99.90
67163;DHT22;54092;53.088;8.850;2024-01-25T03:33:13;6.80;99.90
67163;DHT22;54092;53.088;8.850;2024-01-25T03:35:38;6.80;99.90
67163;DHT22;54092;53.088;8.850;2024-01-25T03:38:04;6.80;99.90
67163;DHT22;54092;53.088;8.850;2024-01-25T03:40:30;6.80;99.90
67163;DHT22;54092;53.088;8.850;2024-01-25T03:42:55;6.80;99.90
67163;DHT22;54092;53.088;8.850;2024-01-25T03:45:21;6.80;99.90
67163;DHT22;54092;53.088;8.850;2024-01-25T03:47:46;6.80;99.90
67163;DHT22;54092;53.088;8.850;2024-01-25T03:50:12;6.80;99.90
67163;DHT22;54092;53.088;8.850;2024-01-25T03:52:37;6.70;99.90
67163;DHT22;54092;53.088;8.850;2024-01-25T03:55:03;6.70;99.90
67163;DHT22;54092;53.088;8.850;2024-01-25T03:57:29;6.70;99.90
67163;DHT22;54092;53.088;8.850;2024-01-25T03:59:55;6.70;99.90
67163;DHT22;54092;53.088;8.850;2024-01-25T04:02:20;6.70;99.90
67163;DHT22;54092;53.088;8.850;2024-01-25T04:04:46;6.60;99.90
67163;DHT22;54092;53.088;8.850;2024-01-25T04:07:11;6.70;99.90
67163;DHT22;54092;53.088;8.850;2024-01-25T04:09:37;6.70;99.90
67163;DHT22;54092;53.088;8.850;2024-01-25T04:12:03;6.70;99.90
67163;DHT22;54092;53.088;8.850;2024-01-25T04:14:29;6.70;99.90
67163;DHT22;54092;53.088;8.850;2024-01-25T04:16:54;6.70;99.90
67163;DHT22;54092;53.088;8.850;2024-01-25T04:19:20;6.70;99.90
67163;DHT22;54092;53.088;8.850;2024-01-25T04:21:45;6.70;99.90
67163;DHT22;54092;53.088;8.850;2024-01-25T04:24:11;6.70;99.90
67163;DHT22;54092;53.088;8.850;2024-01-25T04:26:36;6.70;99.90
67163;DHT22;54092;53.088;8.850;2024-01-25T04:29:02;6.70;99.90
67163;DHT22;54092;53.088;8.850;2024-01-25T04:31:27;6.70;99.90
67163;DHT22;54092;53.088;8.850;2024-01-25T04:33:53;6.70;99.90
67163;DHT22;54092;53.088;8.850;2024-01-25T04:36:18;6.70;99.90
67163;DHT22;54092;53.088;8.850;2024-01-25T04:38:44;6.70;99.90
67163;DHT22;54092;53.088;8.850;2024-01-25T04:41:09;6.70;99.90
67163;DHT22;54092;53.088;8.850;2024-01-25T04:43:35;6.80;99.90
67163;DHT22;54092;53.088;8.850;2024-01-25T04:46:04;6.80;99.90
67163;DHT22;54092;53.088;8.850;2024-01-25T04:48:30;6.80;99.90
67163;DHT22;54092;53.088;8.850;2024-01-25T04:50:58;6.70;99.90
67163;DHT22;54092;53.088;8.850;2024-01-25T04:53:24;6.70;99.90
67163;DHT22;54092;53.088;8.850;2024-01-25T04:55:50;6.70;99.90
67163;DHT22;54092;53.088;8.850;2024-01-25T04:58:15;6.70;99.90
67163;DHT22;54092;53.088;8.850;2024-01-25T05:00:41;6.70;99.90
67163;DHT22;54092;53.088;8.850;2024-01-25T05:03:06;6.70;99.90
67163;DHT22;54092;53.088;8.850;2024-01-25T05:05:32;6.70;99.90
67163;DHT22;54092;53.088;8.850;2024-01-25T05:07:57;6.70;99.90
67163;DHT22;54092;53.088;8.850;2024-01-25T05:10:23;6.70;99.90
67163;DHT22;54092;53.088;8.850;2024-01-25T05:12:50;6.60;99.90
67163;DHT22;54092;53.088;8.850;2024-01-25T05:15:16;6.60;99.90
67163;DHT22;54092;53.088;8.850;2024-01-25T05:17:42;6.70;99.90
67163;DHT22;54092;53.088;8.850;2024-01-25T05:20:07;6.70;99.90
67163;DHT22;54092;53.088;8.850;2024-01-25T05:22:34;6.60;99.90
67163;DHT22;54092;53.088;8.850;2024-01-25T05:25:05;6.60;99.90
67163;DHT22;54092;53.088;8.850;2024-01-25T05:27:31;6.60;99.90
67163;DHT22;54092;53.088;8.850;2024-01-25T05:29:57;6.60;99.90
67163;DHT22;54092;53.088;8.850;2024-01-25T05:32:22;6.50;99.90
67163;DHT22;54092;53.088;8.850;2024-01-25T05:34:47;6.50;99.90
67163;DHT22;54092;53.088;8.850;2024-01-25T05:37:13;6.50;99.90
67163;DHT22;54092;53.088;8.850;2024-01-25T05:39:38;6.50;99.90
67163;DHT22;54092;53.088;8.850;2024-01-25T05:42:04;6.50;99.90
67163;DHT22;54092;53.088;8.850;2024-01-25T05:44:29;6.50;99.90
67163;DHT22;54092;53.088;8.850;2024-01-25T05:46:55;6.50;99.90
67163;DHT22;54092;53.088;8.850;2024-01-25T05:49:21;6.60;99.90
67163;DHT22;54092;53.088;8.850;2024-01-25T05:51:46;6.60;99.90
67163;DHT22;54092;53.088;8.850;2024-01-25T05:54:12;6.60;99.90
67163;DHT22;54092;53.088;8.850;2024-01-25T05:56:38;6.60;99.90
67163;DHT22;54092;53.088;8.850;2024-01-25T05:59:04;6.60;99.90
67163;DHT22;54092;53.088;8.850;2024-01-25T06:01:29;6.60;99.90
67163;DHT22;54092;53.088;8.850;2024-01-25T06:03:55;6.70;99.90
67163;DHT22;54092;53.088;8.850;2024-01-25T06:06:20;6.70;99.90
67163;DHT22;54092;53.088;8.850;2024-01-25T06:08:46;6.70;99.90
67163;DHT22;54092;53.088;8.850;2024-01-25T06:11:11;6.70;99.90
67163;DHT22;54092;53.088;8.850;2024-01-25T06:13:37;6.70;99.90
67163;DHT22;54092;53.088;8.850;2024-01-25T06:16:02;6.70;99.90
67163;DHT22;54092;53.088;8.850;2024-01-25T06:18:28;6.70;99.90
67163;DHT22;54092;53.088;8.850;2024-01-25T06:20:53;6.70;99.90
67163;DHT22;54092;53.088;8.850;2024-01-25T06:23:18;6.70;99.90
67163;DHT22;54092;53.088;8.850;2024-01-25T06:25:44;6.70;99.90
67163;DHT22;54092;53.088;8.850;2024-01-25T06:28:09;6.60;99.90
67163;DHT22;54092;53.088;8.850;2024-01-25T06:30:35;6.60;99.90
67163;DHT22;54092;53.088;8.850;2024-01-25T06:33:00;6.60;99.90
67163;DHT22;54092;53.088;8.850;2024-01-25T06:35:26;6.60;99.90
67163;DHT22;54092;53.088;8.850;2024-01-25T06:37:51;6.60;99.90
67163;DHT22;54092;53.088;8.850;2024-01-25T06:40:17;6.70;99.90
67163;DHT22;54092;53.088;8.850;2024-01-25T06:42:43;6.70;99.90
67163;DHT22;54092;53.088;8.850;2024-01-25T06:45:10;6.70;99.90
67163;DHT22;54092;53.088;8.850;2024-01-25T06:47:35;6.70;99.90
67163;DHT22;54092;53.088;8.850;2024-01-25T06:50:01;6.70;99.90
67163;DHT22;54092;53.088;8.850;2024-01-25T06:52:27;6.70;99.90
67163;DHT22;54092;53.088;8.850;2024-01-25T06:54:52;6.70;99.90
67163;DHT22;54092;53.088;8.850;2024-01-25T06:57:17;6.70;99.90
67163;DHT22;54092;53.088;8.850;2024-01-25T06:59:43;6.70;99.90
67163;DHT22;54092;53.088;8.850;2024-01-25T07:02:08;6.70;99.90
67163;DHT22;54092;53.088;8.850;2024-01-25T07:04:34;6.70;99.90
67163;DHT22;54092;53.088;8.850;2024-01-25T07:07:00;6.70;99.90
67163;DHT22;54092;53.088;8.850;2024-01-25T07:09:25;6.70;99.90
67163;DHT22;54092;53.088;8.850;2024-01-25T07:11:51;6.70;99.90
67163;DHT22;54092;53.088;8.850;2024-01-25T07:14:16;6.70;99.90
67163;DHT22;54092;53.088;8.850;2024-01-25T07:16:42;6.70;99.90
67163;DHT22;54092;53.088;8.850;2024-01-25T07:19:08;6.70;99.90
67163;DHT22;54092;53.088;8.850;2024-01-25T07:21:33;6.70;99.90
67163;DHT22;54092;53.088;8.850;2024-01-25T07:24:00;6.80;99.90
67163;DHT22;54092;53.088;8.850;2024-01-25T07:26:26;6.80;99.90
67163;DHT22;54092;53.088;8.850;2024-01-25T07:28:51;6.80;99.90
67163;DHT22;54092;53.088;8.850;2024-01-25T07:31:24;6.80;99.90
67163;DHT22;54092;53.088;8.850;2024-01-25T07:33:49;6.80;99.90
67163;DHT22;54092;53.088;8.850;2024-01-25T07:36:15;6.80;99.90
67163;DHT22;54092;53.088;8.850;2024-01-25T07:38:40;6.80;99.90
67163;DHT22;54092;53.088;8.850;2024-01-25T07:41:06;6.80;99.90
67163;DHT22;54092;53.088;8.850;2024-01-25T07:43:32;6.80;99.90
67163;DHT22;54092;53.088;8.850;2024-01-25T07:45:58;6.80;99.90
67163;DHT22;54092;53.088;8.850;2024-01-25T07:48:24;6.80;99.90
67163;DHT22;54092;53.088;8.850;2024-01-25T07:50:49;6.80;99.90
67163;DHT22;54092;53.088;8.850;2024-01-25T07:53:15;6.80;99.90
67163;DHT22;54092;53.088;8.850;2024-01-25T07:55:41;6.80;99.90
67163;DHT22;54092;53.088;8.850;2024-01-25T07:58:07;6.80;99.90
67163;DHT22;54092;53.088;8.850;2024-01-25T08:00:32;6.90;99.90
67163;DHT22;54092;53.088;8.850;2024-01-25T08:02:58;6.90;99.90
67163;DHT22;54092;53.088;8.850;2024-01-25T08:05:23;6.90;99.90
67163;DHT22;54092;53.088;8.850;2024-01-25T08:07:49;6.90;99.90
67163;DHT22;54092;53.088;8.850;2024-01-25T08:10:15;6.90;99.90
67163;DHT22;54092;53.088;8.850;2024-01-25T08:12:41;6.90;99.90
67163;DHT22;54092;53.088;8.850;2024-01-25T08:15:09;6.90;99.90
67163;DHT22;54092;53.088;8.850;2024-01-25T08:17:37;6.90;99.90
67163;DHT22;54092;53.088;8.850;2024-01-25T08:20:03;6.90;99.90
67163;DHT22;54092;53.088;8.850;2024-01-25T08:22:31;7.00;99.90
67163;DHT22;54092;53.088;8.850;2024-01-25T08:24:56;7.00;99.90
67163;DHT22;54092;53.088;8.850;2024-01-25T08:27:22;6.90;99.90
67163;DHT22;54092;53.088;8.850;2024-01-25T08:29:47;7.00;99.90
67163;DHT22;54092;53.088;8.850;2024-01-25T08:32:13;7.00;99.90
67163;DHT22;54092;53.088;8.850;2024-01-25T08:34:38;7.00;99.90
67163;DHT22;54092;53.088;8.850;2024-01-25T08:37:04;7.00;99.90
67163;DHT22;54092;53.088;8.850;2024-01-25T08:39:29;7.00;99.90
67163;DHT22;54092;53.088;8.850;2024-01-25T08:41:55;7.00;99.90
67163;DHT22;54092;53.088;8.850;2024-01-25T08:44:22;7.10;99.90
67163;DHT22;54092;53.088;8.850;2024-01-25T08:46:47;7.10;99.90
67163;DHT22;54092;53.088;8.850;2024-01-25T08:49:13;7.10;99.90
67163;DHT22;54092;53.088;8.850;2024-01-25T08:51:38;7.10;99.90
67163;DHT22;54092;53.088;8.850;2024-01-25T08:54:04;7.10;99.90
67163;DHT22;54092;53.088;8.850;2024-01-25T08:56:30;7.10;99.90
67163;DHT22;54092;53.088;8.850;2024-01-25T08:58:55;7.10;99.90
67163;DHT22;54092;53.088;8.850;2024-01-25T09:01:21;7.20;99.90
67163;DHT22;54092;53.088;8.850;2024-01-25T09:03:47;7.10;99.90
67163;DHT22;54092;53.088;8.850;2024-01-25T09:06:12;7.10;99.90
67163;DHT22;54092;53.088;8.850;2024-01-25T09:08:38;7.10;99.90
67163;DHT22;54092;53.088;8.850;2024-01-25T09:11:03;7.10;99.90
67163;DHT22;54092;53.088;8.850;2024-01-25T09:13:29;7.10;99.90
67163;DHT22;54092;53.088;8.850;2024-01-25T09:15:55;7.10;99.90
67163;DHT22;54092;53.088;8.850;2024-01-25T09:18:21;7.20;99.90
67163;DHT22;54092;53.088;8.850;2024-01-25T09:20:46;7.10;99.90
67163;DHT22;54092;53.088;8.850;2024-01-25T09:23:14;7.20;99.90
67163;DHT22;54092;53.088;8.850;2024-01-25T09:25:42;7.20;99.90
67163;DHT22;54092;53.088;8.850;2024-01-25T09:28:07;7.30;99.90
67163;DHT22;54092;53.088;8.850;2024-01-25T09:30:33;7.20;99.90
67163;DHT22;54092;53.088;8.850;2024-01-25T09:32:58;7.30;99.90
67163;DHT22;54092;53.088;8.850;2024-01-25T09:35:24;7.40;99.90
67163;DHT22;54092;53.088;8.850;2024-01-25T09:37:49;7.50;99.90
67163;DHT22;54092;53.088;8.850;2024-01-25T09:40:20;7.50;99.90
67163;DHT22;54092;53.088;8.850;2024-01-25T09:42:47;7.50;99.90
67163;DHT22;54092;53.088;8.850;2024-01-25T09:45:16;7.40;99.90
67163;DHT22;54092;53.088;8.850;2024-01-25T09:47:42;7.50;99.90
67163;DHT22;54092;53.088;8.850;2024-01-25T09:50:08;7.60;99.90
67163;DHT22;54092;53.088;8.850;2024-01-25T09:52:34;7.70;99.90
67163;DHT22;54092;53.088;8.850;2024-01-25T09:55:01;7.70;99.90
67163;DHT22;54092;53.088;8.850;2024-01-25T09:57:28;7.70;99.90
67163;DHT22;54092;53.088;8.850;2024-01-25T09:59:55;7.70;99.90
67163;DHT22;54092;53.088;8.850;2024-01-25T10:02:21;7.70;99.90
67163;DHT22;54092;53.088;8.850;2024-01-25T10:04:53;7.80;99.90
67163;DHT22;54092;53.088;8.850;2024-01-25T10:07:42;7.80;99.90
67163;DHT22;54092;53.088;8.850;2024-01-25T10:10:08;7.90;99.90
67163;DHT22;54092;53.088;8.850;2024-01-25T10:12:34;7.90;99.90
67163;DHT22;54092;53.088;8.850;2024-01-25T10:15:00;7.90;99.90
67163;DHT22;54092;53.088;8.850;2024-01-25T10:17:28;8.00;99.90
67163;DHT22;54092;53.088;8.850;2024-01-25T10:19:53;8.10;99.90
67163;DHT22;54092;53.088;8.850;2024-01-25T10:22:19;8.20;99.90
67163;DHT22;54092;53.088;8.850;2024-01-25T10:24:44;8.20;99.90
67163;DHT22;54092;53.088;8.850;2024-01-25T10:27:10;8.10;99.90
67163;DHT22;54092;53.088;8.850;2024-01-25T10:29:36;8.00;99.90
67163;DHT22;54092;53.088;8.850;2024-01-25T10:32:06;7.90;99.90
67163;DHT22;54092;53.088;8.850;2024-01-25T10:34:36;7.90;99.90
67163;DHT22;54092;53.088;8.850;2024-01-25T10:37:05;7.70;99.90
67163;DHT22;54092;53.088;8.850;2024-01-25T10:39:31;7.70;99.90
67163;DHT22;54092;53.088;8.850;2024-01-25T10:41:58;7.60;99.90
67163;DHT22;54092;53.088;8.850;2024-01-25T10:44:24;7.60;99.90
67163;DHT22;54092;53.088;8.850;2024-01-25T10:46:50;7.50;99.90
67163;DHT22;54092;53.088;8.850;2024-01-25T10:49:17;7.60;99.90
67163;DHT22;54092;53.088;8.850;2024-01-25T10:51:44;7.60;99.90
67163;DHT22;54092;53.088;8.850;2024-01-25T10:54:11;7.60;99.90
67163;DHT22;54092;53.088;8.850;2024-01-25T10:56:38;7.70;99.90
67163;DHT22;54092;53.088;8.850;2024-01-25T10:59:06;7.90;99.90
67163;DHT22;54092;53.088;8.850;2024-01-25T11:01:33;8.00;99.90
67163;DHT22;54092;53.088;8.850;2024-01-25T11:03:59;7.90;99.90
67163;DHT22;54092;53.088;8.850;2024-01-25T11:06:27;7.90;99.90
67163;DHT22;54092;53.088;8.850;2024-01-25T11:09:03;8.00;99.90
67163;DHT22;54092;53.088;8.850;2024-01-25T11:11:31;8.10;99.90
67163;DHT22;54092;53.088;8.850;2024-01-25T11:13:56;8.20;99.90
67163;DHT22;54092;53.088;8.850;2024-01-25T11:16:29;8.20;99.90
67163;DHT22;54092;53.088;8.850;2024-01-25T11:18:56;8.50;99.90
67163;DHT22;54092;53.088;8.850;2024-01-25T11:21:42;8.70;99.90
67163;DHT22;54092;53.088;8.850;2024-01-25T11:24:15;9.00;99.90
67163;DHT22;54092;53.088;8.850;2024-01-25T11:26:44;9.30;99.90
67163;DHT22;54092;53.088;8.850;2024-01-25T11:29:12;9.40;99.90
67163;DHT22;54092;53.088;8.850;2024-01-25T11:31:40;9.30;99.90
67163;DHT22;54092;53.088;8.850;2024-01-25T11:34:05;9.10;99.90
67163;DHT22;54092;53.088;8.850;2024-01-25T11:36:31;9.10;99.90
67163;DHT22;54092;53.088;8.850;2024-01-25T11:38:56;9.30;99.90
67163;DHT22;54092;53.088;8.850;2024-01-25T11:41:22;9.10;99.90
67163;DHT22;54092;53.088;8.850;2024-01-25T11:43:48;8.80;99.90
67163;DHT22;54092;53.088;8.850;2024-01-25T11:46:14;8.70;99.90
67163;DHT22;54092;53.088;8.850;2024-01-25T11:48:41;8.60;99.90
67163;DHT22;54092;53.088;8.850;2024-01-25T11:51:09;8.50;99.90
67163;DHT22;54092;53.088;8.850;2024-01-25T11:53:35;8.50;99.90
67163;DHT22;54092;53.088;8.850;2024-01-25T11:56:01;9.00;99.90
67163;DHT22;54092;53.088;8.850;2024-01-25T11:58:27;9.30;99.90
67163;DHT22;54092;53.088;8.850;2024-01-25T12:00:53;9.20;99.90
67163;DHT22;54092;53.088;8.850;2024-01-25T12:03:20;9.50;99.90
67163;DHT22;54092;53.088;8.850;2024-01-25T12:05:46;10.00;99.90
67163;DHT22;54092;53.088;8.850;2024-01-25T12:08:14;10.20;99.90
67163;DHT22;54092;53.088;8.850;2024-01-25T12:10:40;10.60;99.90
67163;DHT22;54092;53.088;8.850;2024-01-25T12:13:09;10.90;99.90
67163;DHT22;54092;53.088;8.850;2024-01-25T12:15:35;11.40;99.90
67163;DHT22;54092;53.088;8.850;2024-01-25T12:18:01;11.40;99.90
67163;DHT22;54092;53.088;8.850;2024-01-25T12:20:28;11.70;99.90
67163;DHT22;54092;53.088;8.850;2024-01-25T12:22:53;12.20;99.90
67163;DHT22;54092;53.088;8.850;2024-01-25T12:25:19;12.50;99.90
67163;DHT22;54092;53.088;8.850;2024-01-25T12:27:44;12.50;99.90
67163;DHT22;54092;53.088;8.850;2024-01-25T12:30:14;12.50;99.90
67163;DHT22;54092;53.088;8.850;2024-01-25T12:32:40;11.90;99.90
67163;DHT22;54092;53.088;8.850;2024-01-25T12:35:06;11.60;99.90
67163;DHT22;54092;53.088;8.850;2024-01-25T12:37:33;12.10;99.90
67163;DHT22;54092;53.088;8.850;2024-01-25T12:39:58;12.30;99.90
67163;DHT22;54092;53.088;8.850;2024-01-25T12:42:24;11.70;99.90
67163;DHT22;54092;53.088;8.850;2024-01-25T12:44:52;11.60;99.90
67163;DHT22;54092;53.088;8.850;2024-01-25T12:47:18;11.30;99.90
67163;DHT22;54092;53.088;8.850;2024-01-25T12:49:44;10.90;99.90
67163;DHT22;54092;53.088;8.850;2024-01-25T12:52:10;11.20;99.90
67163;DHT22;54092;53.088;8.850;2024-01-25T12:54:36;11.60;99.90
67163;DHT22;54092;53.088;8.850;2024-01-25T12:57:03;12.10;99.90
67163;DHT22;54092;53.088;8.850;2024-01-25T12:59:29;12.10;99.90
67163;DHT22;54092;53.088;8.850;2024-01-25T13:01:54;12.00;99.90
67163;DHT22;54092;53.088;8.850;2024-01-25T13:04:20;11.90;99.90
67163;DHT22;54092;53.088;8.850;2024-01-25T13:06:46;11.70;99.90
67163;DHT22;54092;53.088;8.850;2024-01-25T13:09:12;11.80;99.90
67163;DHT22;54092;53.088;8.850;2024-01-25T13:11:37;11.90;99.90
67163;DHT22;54092;53.088;8.850;2024-01-25T13:14:03;12.20;99.90
67163;DHT22;54092;53.088;8.850;2024-01-25T13:16:28;12.00;99.90
67163;DHT22;54092;53.088;8.850;2024-01-25T13:18:54;11.50;99.90
67163;DHT22;54092;53.088;8.850;2024-01-25T13:21:19;10.70;99.90
67163;DHT22;54092;53.088;8.850;2024-01-25T13:23:45;10.20;99.90
67163;DHT22;54092;53.088;8.850;2024-01-25T13:26:10;10.40;99.90
67163;DHT22;54092;53.088;8.850;2024-01-25T13:28:36;10.20;99.90
67163;DHT22;54092;53.088;8.850;2024-01-25T13:31:02;10.30;99.90
67163;DHT22;54092;53.088;8.850;2024-01-25T13:33:28;10.20;99.90
67163;DHT22;54092;53.088;8.850;2024-01-25T13:35:53;9.90;99.90
67163;DHT22;54092;53.088;8.850;2024-01-25T13:38:19;10.10;99.90
67163;DHT22;54092;53.088;8.850;2024-01-25T13:40:44;10.20;99.90
67163;DHT22;54092;53.088;8.850;2024-01-25T13:43:10;10.30;99.90
67163;DHT22;54092;53.088;8.850;2024-01-25T13:45:36;10.60;99.90
67163;DHT22;54092;53.088;8.850;2024-01-25T13:48:01;10.70;99.90
67163;DHT22;54092;53.088;8.850;2024-01-25T13:50:27;10.40;99.90
67163;DHT22;54092;53.088;8.850;2024-01-25T13:52:52;10.20;99.90
67163;DHT22;54092;53.088;8.850;2024-01-25T13:55:18;10.30;99.90
67163;DHT22;54092;53.088;8.850;2024-01-25T13:57:43;10.10;99.90
67163;DHT22;54092;53.088;8.850;2024-01-25T14:00:09;9.90;99.90
67163;DHT22;54092;53.088;8.850;2024-01-25T14:02:35;9.60;99.90
67163;DHT22;54092;53.088;8.850;2024-01-25T14:05:01;9.30;99.90
67163;DHT22;54092;53.088;8.850;2024-01-25T14:07:26;9.20;99.90
67163;DHT22;54092;53.088;8.850;2024-01-25T14:09:53;9.20;99.90
67163;DHT22;54092;53.088;8.850;2024-01-25T14:12:18;9.20;99.90
67163;DHT22;54092;53.088;8.850;2024-01-25T14:14:44;9.20;99.90
67163;DHT22;54092;53.088;8.850;2024-01-25T14:17:09;9.40;99.90
67163;DHT22;54092;53.088;8.850;2024-01-25T14:19:35;9.60;99.90
67163;DHT22;54092;53.088;8.850;2024-01-25T14:22:01;9.90;99.90
67163;DHT22;54092;53.088;8.850;2024-01-25T14:24:26;10.00;99.90
67163;DHT22;54092;53.088;8.850;2024-01-25T14:26:52;10.00;99.90
67163;DHT22;54092;53.088;8.850;2024-01-25T14:29:17;10.00;99.90
67163;DHT22;54092;53.088;8.850;2024-01-25T14:31:43;9.90;99.90
67163;DHT22;54092;53.088;8.850;2024-01-25T14:34:09;9.80;99.90
67163;DHT22;54092;53.088;8.850;2024-01-25T14:36:35;9.70;99.90
67163;DHT22;54092;53.088;8.850;2024-01-25T14:39:00;9.60;99.90
67163;DHT22;54092;53.088;8.850;2024-01-25T14:41:27;9.60;99.90
67163;DHT22;54092;53.088;8.850;2024-01-25T14:43:53;7.20;99.90
67163;DHT22;54092;53.088;8.850;2024-01-25T14:46:18;9.50;99.90
67163;DHT22;54092;53.088;8.850;2024-01-25T14:48:44;9.60;99.90
67163;DHT22;54092;53.088;8.850;2024-01-25T14:51:09;9.30;99.90
67163;DHT22;54092;53.088;8.850;2024-01-25T14:53:34;9.60;99.90
67163;DHT22;54092;53.088;8.850;2024-01-25T14:56:00;9.70;99.90
67163;DHT22;54092;53.088;8.850;2024-01-25T14:58:27;9.70;99.90
67163;DHT22;54092;53.088;8.850;2024-01-25T15:00:52;9.60;99.90
67163;DHT22;54092;53.088;8.850;2024-01-25T15:03:19;9.10;99.90
67163;DHT22;54092;53.088;8.850;2024-01-25T15:05:44;9.10;99.90
67163;DHT22;54092;53.088;8.850;2024-01-25T15:08:10;12.60;99.90
67163;DHT22;54092;53.088;8.850;2024-01-25T15:10:36;8.80;99.90
67163;DHT22;54092;53.088;8.850;2024-01-25T15:13:01;8.70;99.90
67163;DHT22;54092;53.088;8.850;2024-01-25T15:15:27;8.60;99.90
67163;DHT22;54092;53.088;8.850;2024-01-25T15:17:56;8.50;99.90
67163;DHT22;54092;53.088;8.850;2024-01-25T15:20:22;8.50;99.90
67163;DHT22;54092;53.088;8.850;2024-01-25T15:22:48;9.40;99.90
67163;DHT22;54092;53.088;8.850;2024-01-25T15:25:14;8.30;99.90
67163;DHT22;54092;53.088;8.850;2024-01-25T15:27:40;8.20;99.90
67163;DHT22;54092;53.088;8.850;2024-01-25T15:30:06;8.20;99.90
67163;DHT22;54092;53.088;8.850;2024-01-25T15:32:33;8.10;99.90
67163;DHT22;54092;53.088;8.850;2024-01-25T15:34:58;8.10;99.90
67163;DHT22;54092;53.088;8.850;2024-01-25T15:37:24;8.00;99.90